createdAt,value
2022-09-25T00:01:04.311Z,19.77
2022-09-25T00:03:31.840Z,22.52
2022-09-25T00:06:22.660Z,20.88
2022-09-25T00:08:49.991Z,21.33
2022-09-25T00:11:23.874Z,19.75
2022-09-25T00:13:51.397Z,22.52
2022-09-25T00:16:21.788Z,21.60
2022-09-25T00:19:07.415Z,19.92
2022-09-25T00:21:35.531Z,18.48
2022-09-25T00:24:05.731Z,19.35
2022-09-25T00:26:36.326Z,19.15
2022-09-25T00:29:04.721Z,24.27
2022-09-25T00:31:31.830Z,21.75
2022-09-25T00:34:01.216Z,24.05
2022-09-25T00:36:28.762Z,18.15
2022-09-25T00:38:55.688Z,17.33
2022-09-25T00:41:25.728Z,22.95
2022-09-25T00:43:56.212Z,23.20
2022-09-25T00:46:26.169Z,22.85
2022-09-25T00:49:04.896Z,24.08
2022-09-25T00:51:55.050Z,23.30
2022-09-25T00:54:35.471Z,20.92
2022-09-25T00:57:09.243Z,14.55
2022-09-25T00:59:43.935Z,18.10
2022-09-25T01:02:16.625Z,16.27
2022-09-25T01:04:46.163Z,22.35
2022-09-25T01:07:14.846Z,27.05
2022-09-25T01:09:41.907Z,20.67
2022-09-25T01:12:09.420Z,26.05
2022-09-25T01:14:36.817Z,16.38
2022-09-25T01:17:10.502Z,15.45
2022-09-25T01:19:56.344Z,18.60
2022-09-25T01:22:54.383Z,20.05
2022-09-25T01:25:47.528Z,18.48
2022-09-25T01:28:35.984Z,19.02
2022-09-25T01:31:10.783Z,13.95
2022-09-25T01:33:55.561Z,10.27
2022-09-25T01:36:59.717Z,16.10
2022-09-25T01:39:33.488Z,11.13
2022-09-25T01:42:14.250Z,11.18
2022-09-25T01:44:49.547Z,14.30
2022-09-25T01:47:22.957Z,11.45
2022-09-25T01:49:56.385Z,13.35
2022-09-25T01:52:29.988Z,10.82
2022-09-25T01:55:03.647Z,11.88
2022-09-25T01:57:38.410Z,12.93
2022-09-25T02:00:15.728Z,11.38
2022-09-25T02:03:11.336Z,17.92
2022-09-25T02:05:52.171Z,13.88
2022-09-25T02:08:29.936Z,14.55
2022-09-25T02:11:02.188Z,11.88
2022-09-25T02:13:37.335Z,7.22
2022-09-25T02:16:13.039Z,13.50
2022-09-25T02:18:58.869Z,17.27
2022-09-25T02:21:47.467Z,10.38
2022-09-25T02:24:38.917Z,15.98
2022-09-25T02:27:05.708Z,13.73
2022-09-25T02:29:32.494Z,14.18
2022-09-25T02:32:14.844Z,11.80
2022-09-25T02:34:42.269Z,9.45
2022-09-25T02:37:13.559Z,13.70
2022-09-25T02:39:41.547Z,11.57
2022-09-25T02:42:48.161Z,19.98
2022-09-25T02:45:29.906Z,12.77
2022-09-25T02:48:28.881Z,14.85
2022-09-25T02:51:13.578Z,6.22
2022-09-25T02:53:42.711Z,11.25
2022-09-25T02:56:14.973Z,13.85
2022-09-25T02:59:02.400Z,13.05
2022-09-25T03:01:32.167Z,11.45
2022-09-25T03:04:00.840Z,10.30
2022-09-25T03:06:30.095Z,14.73
2022-09-25T03:08:58.813Z,12.55
2022-09-25T03:11:29.466Z,8.82
2022-09-25T03:14:01.695Z,13.80
2022-09-25T03:16:36.102Z,15.23
2022-09-25T03:19:03.577Z,8.77
2022-09-25T03:21:30.387Z,13.10
2022-09-25T03:23:57.026Z,13.38
2022-09-25T03:26:24.916Z,6.35
2022-09-25T03:28:52.339Z,11.57
2022-09-25T03:31:19.554Z,13.02
2022-09-25T03:33:46.865Z,7.78
2022-09-25T03:36:18.978Z,7.50
2022-09-25T03:38:48.497Z,12.70
2022-09-25T03:41:21.032Z,7.35
2022-09-25T03:43:51.421Z,12.50
2022-09-25T03:46:22.090Z,12.25
2022-09-25T03:48:48.995Z,14.85
2022-09-25T03:51:15.902Z,16.60
2022-09-25T03:53:42.525Z,10.63
2022-09-25T03:56:15.309Z,12.38
2022-09-25T03:58:41.957Z,15.05
2022-09-25T04:01:11.014Z,8.35
2022-09-25T04:03:39.304Z,10.15
2022-09-25T04:06:07.972Z,11.35
2022-09-25T04:08:36.271Z,11.10
2022-09-25T04:11:03.895Z,9.55
2022-09-25T04:13:33.490Z,9.52
2022-09-25T04:16:02.052Z,12.77
2022-09-25T04:18:31.434Z,6.40
2022-09-25T04:21:04.243Z,13.25
2022-09-25T04:23:31.613Z,12.23
2022-09-25T04:25:58.414Z,7.28
2022-09-25T04:28:25.570Z,10.05
2022-09-25T04:30:52.401Z,9.18
2022-09-25T04:33:38.151Z,13.88
2022-09-25T04:36:05.678Z,8.60
2022-09-25T04:38:32.514Z,11.43
2022-09-25T04:41:02.802Z,8.10
2022-09-25T04:43:33.805Z,19.90
2022-09-25T04:46:02.785Z,15.10
2022-09-25T04:48:30.183Z,16.83
2022-09-25T04:50:58.177Z,8.50
2022-09-25T04:53:26.576Z,9.75
2022-09-25T04:55:54.345Z,15.52
2022-09-25T04:58:21.497Z,19.27
2022-09-25T05:00:48.386Z,13.05
2022-09-25T05:03:15.475Z,14.13
2022-09-25T05:05:42.284Z,9.07
2022-09-25T05:08:10.361Z,5.85
2022-09-25T05:10:39.784Z,13.13
2022-09-25T05:13:09.104Z,6.55
2022-09-25T05:15:36.299Z,6.90
2022-09-25T05:18:20.738Z,11.77
2022-09-25T05:20:48.076Z,13.82
2022-09-25T05:23:16.132Z,7.88
2022-09-25T05:25:42.923Z,13.55
2022-09-25T05:28:10.348Z,13.57
2022-09-25T05:30:38.776Z,11.07
2022-09-25T05:33:05.881Z,13.80
2022-09-25T05:35:33.480Z,15.35
2022-09-25T05:38:00.249Z,7.70
2022-09-25T05:40:27.639Z,15.32
2022-09-25T05:42:55.238Z,12.70
2022-09-25T05:45:23.249Z,9.57
2022-09-25T05:48:01.155Z,13.00
2022-09-25T05:50:28.417Z,14.82
2022-09-25T05:53:03.643Z,16.40
2022-09-25T05:55:30.901Z,13.63
2022-09-25T05:58:02.639Z,9.73
2022-09-25T06:00:30.394Z,10.88
2022-09-25T06:02:57.112Z,17.33
2022-09-25T06:05:23.766Z,7.97
2022-09-25T06:07:54.878Z,7.82
2022-09-25T06:10:21.703Z,7.20
2022-09-25T06:12:48.662Z,9.82
2022-09-25T06:15:15.541Z,9.20
2022-09-25T06:17:42.188Z,15.23
2022-09-25T06:20:15.667Z,10.73
2022-09-25T06:22:44.373Z,9.57
2022-09-25T06:25:11.075Z,13.23
2022-09-25T06:27:37.834Z,9.35
2022-09-25T06:30:05.002Z,13.90
2022-09-25T06:32:31.657Z,10.70
2022-09-25T06:34:58.322Z,10.05
2022-09-25T06:37:25.086Z,13.32
2022-09-25T06:39:51.797Z,7.30
2022-09-25T06:42:18.436Z,8.82
2022-09-25T06:44:45.073Z,15.40
2022-09-25T06:47:18.456Z,19.40
2022-09-25T06:49:46.342Z,11.40
2022-09-25T06:52:13.147Z,12.60
2022-09-25T06:54:43.957Z,13.18
2022-09-25T06:57:12.678Z,14.55
2022-09-25T06:59:40.178Z,13.25
2022-09-25T07:02:25.964Z,11.35
2022-09-25T07:04:52.858Z,10.40
2022-09-25T07:07:20.984Z,10.65
2022-09-25T07:09:48.493Z,9.55
2022-09-25T07:12:17.628Z,13.65
2022-09-25T07:14:46.821Z,7.93
2022-09-25T07:17:16.238Z,13.60
2022-09-25T07:19:42.877Z,5.53
2022-09-25T07:23:04.174Z,8.15
2022-09-25T07:25:34.360Z,4.90
2022-09-25T07:28:01.166Z,7.82
2022-09-25T07:30:29.441Z,10.10
2022-09-25T07:33:00.056Z,8.77
2022-09-25T07:35:30.117Z,10.97
2022-09-25T07:37:57.616Z,7.07
2022-09-25T07:40:27.327Z,6.03
2022-09-25T07:43:00.448Z,10.90
2022-09-25T07:45:29.101Z,12.13
2022-09-25T07:48:03.762Z,4.30
2022-09-25T07:50:32.204Z,4.60
2022-09-25T07:52:59.513Z,7.45
2022-09-25T07:55:28.360Z,5.32
2022-09-25T07:57:58.292Z,4.95
2022-09-25T08:00:25.072Z,7.28
2022-09-25T08:02:58.919Z,9.95
2022-09-25T08:05:27.246Z,7.20
2022-09-25T08:07:54.427Z,7.45
2022-09-25T08:10:21.944Z,10.50
2022-09-25T08:12:49.455Z,8.65
2022-09-25T08:15:16.408Z,7.55
2022-09-25T08:17:43.545Z,4.63
2022-09-25T08:20:10.681Z,4.85
2022-09-25T08:22:37.482Z,6.68
2022-09-25T08:25:04.358Z,9.38
2022-09-25T08:27:31.470Z,5.43
2022-09-25T08:29:58.513Z,10.27
2022-09-25T08:32:25.177Z,5.22
2022-09-25T08:34:51.826Z,10.00
2022-09-25T08:37:19.527Z,9.98
2022-09-25T08:39:46.216Z,12.15
2022-09-25T08:42:22.248Z,5.38
2022-09-25T08:45:20.920Z,8.05
2022-09-25T08:48:10.785Z,5.88
2022-09-25T08:50:38.798Z,4.90
2022-09-25T08:53:15.017Z,14.27
2022-09-25T08:56:00.872Z,5.53
2022-09-25T08:58:31.362Z,9.90
2022-09-25T09:01:07.534Z,5.70
2022-09-25T09:03:43.257Z,3.45
2022-09-25T09:06:14.972Z,9.65
2022-09-25T09:11:15.630Z,3.03
2022-09-25T09:13:53.085Z,3.47
2022-09-25T09:16:28.681Z,4.90
2022-09-25T09:18:56.617Z,7.20
2022-09-25T09:21:36.153Z,6.05
2022-09-25T09:24:23.175Z,8.25
2022-09-25T09:26:59.669Z,3.05
2022-09-25T09:29:32.936Z,4.93
2022-09-25T09:32:27.328Z,1.65
2022-09-25T09:35:07.055Z,4.47
2022-09-25T09:37:53.949Z,3.22
2022-09-25T09:40:32.699Z,2.72
2022-09-25T09:43:00.072Z,2.63
2022-09-25T09:45:50.135Z,4.57
2022-09-25T09:48:43.745Z,2.70
2022-09-25T09:51:22.457Z,3.47
2022-09-25T09:53:58.800Z,5.10
2022-09-25T09:56:30.501Z,2.92
2022-09-25T09:59:07.057Z,2.00
2022-09-25T10:01:42.048Z,4.10
2022-09-25T10:04:18.666Z,2.15
2022-09-25T10:06:50.685Z,2.75
2022-09-25T10:09:17.949Z,3.72
2022-09-25T10:11:49.287Z,4.05
2022-09-25T10:14:20.962Z,3.38
2022-09-25T10:19:24.800Z,4.82
2022-09-25T10:22:07.047Z,3.53
2022-09-25T10:24:53.536Z,5.28
2022-09-25T10:27:25.738Z,5.82
2022-09-25T10:30:05.700Z,4.15
2022-09-25T10:33:01.257Z,3.78
2022-09-25T10:35:38.784Z,2.13
2022-09-25T10:38:16.696Z,4.90
2022-09-25T10:40:49.288Z,3.50
2022-09-25T10:43:23.584Z,3.75
2022-09-25T10:46:04.441Z,2.75
2022-09-25T10:48:56.622Z,2.97
2022-09-25T10:51:24.284Z,2.38
2022-09-25T10:54:16.041Z,5.13
2022-09-25T10:56:42.704Z,9.77
2022-09-25T10:59:21.017Z,2.35
2022-09-25T11:01:51.160Z,1.25
2022-09-25T11:04:29.253Z,6.25
2022-09-25T11:06:58.869Z,4.53
2022-09-25T11:09:32.352Z,3.95
2022-09-25T11:12:20.963Z,4.45
2022-09-25T11:15:02.214Z,4.13
2022-09-25T11:17:38.234Z,5.45
2022-09-25T11:20:16.307Z,0.98
2022-09-25T11:22:49.913Z,3.22
2022-09-25T11:25:34.014Z,7.00
2022-09-25T11:28:13.079Z,1.88
2022-09-25T11:30:57.848Z,3.78
2022-09-25T11:33:51.683Z,4.80
2022-09-25T11:36:32.401Z,5.05
2022-09-25T11:39:27.177Z,2.45
2022-09-25T11:42:01.301Z,6.07
2022-09-25T11:44:32.746Z,3.38
2022-09-25T11:47:27.669Z,1.55
2022-09-25T11:49:56.795Z,3.97
2022-09-25T11:52:42.654Z,3.30
2022-09-25T11:55:43.296Z,3.45
2022-09-25T11:58:21.897Z,2.30
2022-09-25T12:01:11.889Z,2.38
2022-09-25T12:04:07.879Z,5.70
2022-09-25T12:06:55.003Z,5.10
2022-09-25T12:09:42.479Z,5.30
2022-09-25T12:12:50.611Z,3.25
2022-09-25T12:15:23.556Z,5.55
2022-09-25T12:18:34.315Z,2.85
2022-09-25T12:21:25.707Z,0.88
2022-09-25T12:24:30.541Z,4.17
2022-09-25T12:27:18.363Z,3.05
2022-09-25T12:30:11.605Z,6.38
2022-09-25T12:32:59.249Z,4.75
2022-09-25T12:35:56.918Z,2.42
2022-09-25T12:38:37.940Z,0.80
2022-09-25T12:41:13.517Z,1.90
2022-09-25T12:44:05.986Z,2.83
2022-09-25T12:46:48.009Z,3.40
2022-09-25T12:52:10.641Z,4.57
2022-09-25T12:54:58.478Z,5.40
2022-09-25T12:57:29.814Z,1.58
2022-09-25T13:00:28.190Z,0.77
2022-09-25T13:03:23.060Z,1.40
2022-09-25T13:05:53.547Z,2.25
2022-09-25T13:08:27.315Z,3.83
2022-09-25T13:11:10.071Z,6.00
2022-09-25T13:13:44.645Z,2.00
2022-09-25T13:16:14.779Z,1.88
2022-09-25T13:19:06.240Z,3.00
2022-09-25T13:21:36.870Z,4.35
2022-09-25T13:24:09.405Z,3.85
2022-09-25T13:26:52.639Z,1.83
2022-09-25T13:29:40.489Z,6.80
2022-09-25T13:32:19.329Z,5.25
2022-09-25T13:34:46.801Z,0.85
2022-09-25T13:37:15.647Z,4.50
2022-09-25T13:40:06.421Z,2.92
2022-09-25T13:42:39.802Z,6.18
2022-09-25T13:45:33.909Z,1.98
2022-09-25T13:48:07.230Z,1.45
2022-09-25T13:50:43.340Z,3.25
2022-09-25T13:53:22.437Z,2.05
2022-09-25T13:55:55.405Z,4.45
2022-09-25T13:58:24.471Z,3.03
2022-09-25T14:00:59.069Z,2.83
2022-09-25T14:03:45.798Z,6.05
2022-09-25T14:06:39.022Z,5.38
2022-09-25T14:09:10.241Z,5.40
2022-09-25T14:11:38.505Z,4.78
2022-09-25T14:14:10.000Z,4.63
2022-09-25T14:16:46.382Z,6.30
2022-09-25T14:19:20.556Z,7.25
2022-09-25T14:21:50.992Z,3.20
2022-09-25T14:24:28.734Z,1.73
2022-09-25T14:27:02.751Z,2.00
2022-09-25T14:29:42.872Z,3.45
2022-09-25T14:32:50.276Z,5.45
2022-09-25T14:35:12.933Z,3.67
2022-09-25T14:38:07.879Z,2.90
2022-09-25T14:40:56.592Z,5.85
2022-09-25T14:43:54.714Z,1.48
2022-09-25T14:46:24.216Z,7.70
2022-09-25T14:48:59.551Z,5.22
2022-09-25T14:51:49.002Z,3.85
2022-09-25T14:54:23.830Z,5.40
2022-09-25T14:56:56.625Z,1.40
2022-09-25T14:59:33.440Z,2.55
2022-09-25T15:02:03.657Z,2.33
2022-09-25T15:04:33.034Z,2.95
2022-09-25T15:07:07.001Z,4.13
2022-09-25T15:09:47.249Z,4.03
2022-09-25T15:12:34.287Z,3.92
2022-09-25T15:15:27.873Z,1.80
2022-09-25T15:17:59.396Z,7.57
2022-09-25T15:20:29.638Z,4.28
2022-09-25T15:22:58.423Z,1.88
2022-09-25T15:25:31.165Z,3.05
2022-09-25T15:27:59.298Z,3.38
2022-09-25T15:30:27.620Z,2.67
2022-09-25T15:33:00.551Z,1.70
2022-09-25T15:35:28.712Z,5.55
2022-09-25T15:38:13.924Z,7.45
2022-09-25T15:40:43.850Z,3.03
2022-09-25T15:43:15.956Z,2.72
2022-09-25T15:45:58.259Z,3.03
2022-09-25T15:48:32.941Z,3.75
2022-09-25T15:51:12.447Z,4.15
2022-09-25T15:53:44.056Z,0.93
2022-09-25T15:56:23.213Z,3.17
2022-09-25T15:59:00.843Z,2.78
2022-09-25T16:01:49.338Z,2.65
2022-09-25T16:04:40.314Z,7.30
2022-09-25T16:07:30.983Z,3.95
2022-09-25T16:10:11.993Z,6.10
2022-09-25T16:12:42.213Z,1.63
2022-09-25T16:15:26.207Z,1.05
2022-09-25T16:18:01.398Z,3.65
2022-09-25T16:20:38.317Z,4.82
2022-09-25T16:23:07.251Z,2.85
2022-09-25T16:25:42.948Z,5.10
2022-09-25T16:28:26.757Z,2.33
2022-09-25T16:31:04.439Z,2.75
2022-09-25T16:33:52.714Z,7.40
2022-09-25T16:36:25.165Z,6.60
2022-09-25T16:39:07.213Z,3.92
2022-09-25T16:41:35.901Z,3.30
2022-09-25T16:44:16.326Z,1.48
2022-09-25T16:47:05.168Z,2.00
2022-09-25T16:49:40.415Z,1.98
2022-09-25T16:52:08.473Z,7.70
2022-09-25T16:54:37.691Z,5.90
2022-09-25T16:57:04.546Z,5.03
2022-09-25T16:59:31.356Z,2.42
2022-09-25T17:02:04.667Z,3.35
2022-09-25T17:04:41.365Z,3.60
2022-09-25T17:07:08.717Z,2.80
2022-09-25T17:09:35.389Z,4.30
2022-09-25T17:12:07.454Z,4.38
2022-09-25T17:14:35.011Z,3.95
2022-09-25T17:17:02.141Z,9.27
2022-09-25T17:19:28.840Z,3.85
2022-09-25T17:21:56.159Z,2.47
2022-09-25T17:24:26.522Z,7.68
2022-09-25T17:26:54.146Z,6.88
2022-09-25T17:29:21.764Z,3.28
2022-09-25T17:31:48.468Z,4.60
2022-09-25T17:34:21.502Z,6.38
2022-09-25T17:36:48.230Z,2.53
2022-09-25T17:39:15.132Z,5.03
2022-09-25T17:41:42.392Z,7.57
2022-09-25T17:44:17.864Z,5.50
2022-09-25T17:46:47.145Z,6.28
2022-09-25T17:49:18.098Z,8.40
2022-09-25T17:51:44.911Z,5.23
2022-09-25T17:54:13.266Z,10.48
2022-09-25T17:56:42.478Z,11.00
2022-09-25T17:59:21.374Z,5.47
2022-09-25T18:01:51.155Z,7.82
2022-09-25T18:04:33.379Z,2.35
2022-09-25T18:07:00.648Z,6.80
2022-09-25T18:09:27.574Z,3.03
2022-09-25T18:11:55.006Z,4.18
2022-09-25T18:14:24.580Z,2.67
2022-09-25T18:16:51.236Z,1.88
2022-09-25T18:19:38.743Z,3.85
2022-09-25T18:22:18.119Z,4.78
2022-09-25T18:24:52.300Z,4.32
2022-09-25T18:27:19.108Z,5.90
2022-09-25T18:29:47.193Z,5.90
2022-09-25T18:32:14.766Z,4.10
2022-09-25T18:34:42.195Z,5.05
2022-09-25T18:37:09.442Z,9.95
2022-09-25T18:39:37.275Z,4.43
2022-09-25T18:42:04.893Z,5.22
2022-09-25T18:44:37.238Z,2.50
2022-09-25T18:47:07.161Z,5.28
2022-09-25T18:49:33.992Z,6.68
2022-09-25T18:52:00.699Z,6.95
2022-09-25T18:54:28.990Z,5.30
2022-09-25T18:56:57.375Z,3.60
2022-09-25T18:59:26.441Z,3.20
2022-09-25T19:01:54.419Z,3.15
2022-09-25T19:04:21.597Z,2.90
2022-09-25T19:06:49.028Z,3.35
2022-09-25T19:09:17.338Z,4.65
2022-09-25T19:11:44.894Z,3.80
2022-09-25T19:14:14.623Z,4.93
2022-09-25T19:16:41.457Z,7.68
2022-09-25T19:19:08.509Z,4.25
2022-09-25T19:21:35.574Z,4.75
2022-09-25T19:24:02.688Z,4.82
2022-09-25T19:26:29.423Z,7.00
2022-09-25T19:28:58.626Z,4.05
2022-09-25T19:31:28.820Z,5.97
2022-09-25T19:33:56.303Z,5.07
2022-09-25T19:36:26.499Z,6.43
2022-09-25T19:38:54.409Z,6.85
2022-09-25T19:41:28.020Z,5.57
2022-09-25T19:43:59.150Z,5.68
2022-09-25T19:46:27.839Z,7.20
2022-09-25T19:48:55.826Z,5.22
2022-09-25T19:51:23.914Z,6.97
2022-09-25T19:53:51.680Z,6.25
2022-09-25T19:56:47.822Z,8.07
2022-09-25T19:59:19.336Z,5.85
2022-09-25T20:01:46.637Z,5.53
2022-09-25T20:04:19.045Z,9.73
2022-09-25T20:06:46.772Z,9.15
2022-09-25T20:09:14.367Z,10.20
2022-09-25T20:11:41.184Z,10.07
2022-09-25T20:14:08.244Z,12.00
2022-09-25T20:16:37.254Z,11.50
2022-09-25T20:19:05.440Z,7.22
2022-09-25T20:21:35.584Z,7.03
2022-09-25T20:24:04.284Z,7.38
2022-09-25T20:26:31.648Z,9.07
2022-09-25T20:29:08.877Z,6.03
2022-09-25T20:31:38.193Z,9.32
2022-09-25T20:34:05.227Z,4.93
2022-09-25T20:36:31.956Z,5.03
2022-09-25T20:38:58.696Z,6.05
2022-09-25T20:41:26.632Z,8.82
2022-09-25T20:43:55.449Z,10.73
2022-09-25T20:46:23.899Z,7.20
2022-09-25T20:48:52.535Z,5.20
2022-09-25T20:51:23.904Z,6.05
2022-09-25T20:53:52.091Z,4.40
2022-09-25T20:56:19.663Z,7.05
2022-09-25T20:58:50.708Z,4.60
2022-09-25T21:01:22.808Z,7.35
2022-09-25T21:03:53.449Z,7.68
2022-09-25T21:06:23.857Z,4.53
2022-09-25T21:09:02.289Z,6.03
2022-09-25T21:11:50.688Z,7.90
2022-09-25T21:14:21.268Z,4.82
2022-09-25T21:16:49.374Z,3.53
2022-09-25T21:19:17.784Z,4.95
2022-09-25T21:21:45.390Z,5.32
2022-09-25T21:24:15.166Z,11.73
2022-09-25T21:26:42.170Z,3.58
2022-09-25T21:29:10.924Z,4.25
2022-09-25T21:31:41.772Z,6.60
2022-09-25T21:34:14.211Z,6.10
2022-09-25T21:36:41.816Z,5.95
2022-09-25T21:39:09.177Z,10.27
2022-09-25T21:41:36.215Z,6.30
2022-09-25T21:44:11.408Z,3.67
2022-09-25T21:46:38.196Z,5.78
2022-09-25T21:49:06.978Z,5.38
2022-09-25T21:51:36.755Z,5.65
2022-09-25T21:54:06.172Z,5.65
2022-09-25T21:56:33.088Z,11.07
2022-09-25T21:59:07.372Z,8.05
2022-09-25T22:01:37.149Z,5.85
2022-09-25T22:04:04.813Z,5.55
2022-09-25T22:06:37.140Z,6.65
2022-09-25T22:09:22.270Z,3.47
2022-09-25T22:12:02.196Z,5.82
2022-09-25T22:14:31.951Z,8.88
2022-09-25T22:16:58.646Z,3.58
2022-09-25T22:19:28.405Z,7.10
2022-09-25T22:21:57.635Z,4.22
2022-09-25T22:24:24.702Z,9.35
2022-09-25T22:26:53.039Z,4.60
2022-09-25T22:29:20.851Z,3.10
2022-09-25T22:31:48.248Z,10.50
2022-09-25T22:34:18.751Z,4.82
2022-09-25T22:36:45.793Z,5.85
2022-09-25T22:39:14.874Z,8.68
2022-09-25T22:41:41.791Z,4.85
2022-09-25T22:44:08.806Z,3.50
2022-09-25T22:46:35.635Z,5.35
2022-09-25T22:49:03.276Z,4.07
2022-09-25T22:51:29.982Z,12.45
2022-09-25T22:53:56.719Z,7.03
2022-09-25T22:56:24.780Z,9.90
2022-09-25T22:59:04.554Z,6.80
2022-09-25T23:01:37.883Z,3.83
2022-09-25T23:04:11.327Z,6.18
2022-09-25T23:06:38.189Z,5.15
2022-09-25T23:09:07.496Z,10.43
2022-09-25T23:11:34.737Z,9.77
2022-09-25T23:14:02.816Z,12.02
2022-09-25T23:16:51.793Z,5.78
2022-09-25T23:19:24.184Z,10.15
2022-09-25T23:21:51.934Z,8.88
2022-09-25T23:24:20.222Z,5.50
2022-09-25T23:26:47.237Z,4.57
2022-09-25T23:29:16.559Z,4.65
2022-09-25T23:31:44.163Z,4.15
2022-09-25T23:34:11.541Z,4.70
2022-09-25T23:36:38.720Z,5.63
2022-09-25T23:39:08.338Z,6.70
2022-09-25T23:41:37.007Z,9.07
2022-09-25T23:44:05.787Z,8.80
2022-09-25T23:46:35.458Z,7.45
2022-09-25T23:49:02.651Z,6.35
2022-09-25T23:51:29.794Z,3.78
2022-09-25T23:53:58.441Z,6.18
2022-09-25T23:56:28.885Z,5.95
2022-09-25T23:58:56.689Z,7.68
